sensor_id;sensor_type;location;lat;lon;timestamp;temperature;humidity
19088;DHT22;9676;50.916;13.352;2023-04-23T00:00:53;18.70;39.50
19088;DHT22;9676;50.916;13.352;2023-04-23T00:03:45;18.70;39.40
19088;DHT22;9676;50.916;13.352;2023-04-23T00:06:37;18.70;39.50
19088;DHT22;9676;50.916;13.352;2023-04-23T00:09:29;18.70;39.50
19088;DHT22;9676;50.916;13.352;2023-04-23T00:12:20;18.70;39.60
19088;DHT22;9676;50.916;13.352;2023-04-23T00:15:11;18.70;39.50
19088;DHT22;9676;50.916;13.352;2023-04-23T00:18:02;18.70;39.60
19088;DHT22;9676;50.916;13.352;2023-04-23T00:20:51;18.70;40.20
19088;DHT22;9676;50.916;13.352;2023-04-23T00:23:40;18.70;39.60
19088;DHT22;9676;50.916;13.352;2023-04-23T00:26:31;18.70;39.60
19088;DHT22;9676;50.916;13.352;2023-04-23T00:29:20;18.70;39.70
19088;DHT22;9676;50.916;13.352;2023-04-23T00:32:10;18.70;39.70
19088;DHT22;9676;50.916;13.352;2023-04-23T00:35:01;18.70;39.70
19088;DHT22;9676;50.916;13.352;2023-04-23T00:37:51;18.70;39.70
19088;DHT22;9676;50.916;13.352;2023-04-23T00:40:41;18.70;39.80
19088;DHT22;9676;50.916;13.352;2023-04-23T00:43:32;18.70;39.80
19088;DHT22;9676;50.916;13.352;2023-04-23T00:46:21;18.70;39.80
19088;DHT22;9676;50.916;13.352;2023-04-23T00:49:13;18.70;39.80
19088;DHT22;9676;50.916;13.352;2023-04-23T00:52:02;18.70;39.80
19088;DHT22;9676;50.916;13.352;2023-04-23T00:54:52;18.70;39.80
19088;DHT22;9676;50.916;13.352;2023-04-23T00:57:41;18.70;39.70
19088;DHT22;9676;50.916;13.352;2023-04-23T01:00:34;18.70;39.70
19088;DHT22;9676;50.916;13.352;2023-04-23T01:03:25;18.60;40.00
19088;DHT22;9676;50.916;13.352;2023-04-23T01:06:16;18.60;39.70
19088;DHT22;9676;50.916;13.352;2023-04-23T01:09:07;18.50;39.70
19088;DHT22;9676;50.916;13.352;2023-04-23T01:11:58;18.50;39.70
19088;DHT22;9676;50.916;13.352;2023-04-23T01:14:49;18.50;40.40
19088;DHT22;9676;50.916;13.352;2023-04-23T01:17:40;18.50;39.80
19088;DHT22;9676;50.916;13.352;2023-04-23T01:20:30;18.40;39.80
19088;DHT22;9676;50.916;13.352;2023-04-23T01:23:22;18.40;39.90
19088;DHT22;9676;50.916;13.352;2023-04-23T01:26:13;18.40;40.00
19088;DHT22;9676;50.916;13.352;2023-04-23T01:29:03;18.30;39.90
19088;DHT22;9676;50.916;13.352;2023-04-23T01:31:53;18.30;40.00
19088;DHT22;9676;50.916;13.352;2023-04-23T01:34:43;18.30;40.10
19088;DHT22;9676;50.916;13.352;2023-04-23T01:37:37;18.30;40.10
19088;DHT22;9676;50.916;13.352;2023-04-23T01:40:28;18.30;40.30
19088;DHT22;9676;50.916;13.352;2023-04-23T01:43:19;18.30;40.30
19088;DHT22;9676;50.916;13.352;2023-04-23T01:46:09;18.30;40.40
19088;DHT22;9676;50.916;13.352;2023-04-23T01:48:59;18.30;40.40
19088;DHT22;9676;50.916;13.352;2023-04-23T01:51:48;18.30;40.40
19088;DHT22;9676;50.916;13.352;2023-04-23T01:54:37;18.30;40.50
19088;DHT22;9676;50.916;13.352;2023-04-23T01:57:29;18.30;40.50
19088;DHT22;9676;50.916;13.352;2023-04-23T02:00:18;18.40;40.60
19088;DHT22;9676;50.916;13.352;2023-04-23T02:03:08;18.40;40.60
19088;DHT22;9676;50.916;13.352;2023-04-23T02:05:58;18.40;40.60
19088;DHT22;9676;50.916;13.352;2023-04-23T02:08:48;18.40;40.90
19088;DHT22;9676;50.916;13.352;2023-04-23T02:11:38;18.50;40.70
19088;DHT22;9676;50.916;13.352;2023-04-23T02:14:29;18.50;40.70
19088;DHT22;9676;50.916;13.352;2023-04-23T02:17:19;18.50;40.70
19088;DHT22;9676;50.916;13.352;2023-04-23T02:20:10;18.50;40.70
19088;DHT22;9676;50.916;13.352;2023-04-23T02:23:00;18.50;41.10
19088;DHT22;9676;50.916;13.352;2023-04-23T02:25:49;18.50;40.80
19088;DHT22;9676;50.916;13.352;2023-04-23T02:28:39;18.50;40.80
19088;DHT22;9676;50.916;13.352;2023-04-23T02:31:30;18.50;40.80
19088;DHT22;9676;50.916;13.352;2023-04-23T02:34:19;18.50;40.90
19088;DHT22;9676;50.916;13.352;2023-04-23T02:37:09;18.60;41.00
19088;DHT22;9676;50.916;13.352;2023-04-23T02:39:58;18.60;41.70
19088;DHT22;9676;50.916;13.352;2023-04-23T02:42:48;18.50;41.00
19088;DHT22;9676;50.916;13.352;2023-04-23T02:45:38;18.50;41.00
19088;DHT22;9676;50.916;13.352;2023-04-23T02:48:28;18.60;41.20
19088;DHT22;9676;50.916;13.352;2023-04-23T02:51:18;18.50;41.20
19088;DHT22;9676;50.916;13.352;2023-04-23T02:54:07;18.60;41.50
19088;DHT22;9676;50.916;13.352;2023-04-23T02:56:58;18.50;41.50
19088;DHT22;9676;50.916;13.352;2023-04-23T02:59:47;18.50;41.50
19088;DHT22;9676;50.916;13.352;2023-04-23T03:02:40;18.50;41.60
19088;DHT22;9676;50.916;13.352;2023-04-23T03:05:31;18.50;41.80
19088;DHT22;9676;50.916;13.352;2023-04-23T03:08:21;18.50;42.00
19088;DHT22;9676;50.916;13.352;2023-04-23T03:11:10;18.40;42.00
19088;DHT22;9676;50.916;13.352;2023-04-23T03:13:59;18.40;42.10
19088;DHT22;9676;50.916;13.352;2023-04-23T03:16:49;18.40;42.30
19088;DHT22;9676;50.916;13.352;2023-04-23T03:19:38;18.30;42.40
19088;DHT22;9676;50.916;13.352;2023-04-23T03:22:29;18.30;42.50
19088;DHT22;9676;50.916;13.352;2023-04-23T03:25:19;18.30;42.70
19088;DHT22;9676;50.916;13.352;2023-04-23T03:28:10;18.30;42.80
19088;DHT22;9676;50.916;13.352;2023-04-23T03:31:00;18.30;42.80
19088;DHT22;9676;50.916;13.352;2023-04-23T03:33:49;18.20;42.90
19088;DHT22;9676;50.916;13.352;2023-04-23T03:36:44;18.20;43.00
19088;DHT22;9676;50.916;13.352;2023-04-23T03:39:37;18.20;43.10
19088;DHT22;9676;50.916;13.352;2023-04-23T03:42:28;18.20;43.40
19088;DHT22;9676;50.916;13.352;2023-04-23T03:45:18;18.10;43.30
19088;DHT22;9676;50.916;13.352;2023-04-23T03:48:07;18.10;43.50
19088;DHT22;9676;50.916;13.352;2023-04-23T03:50:57;18.10;43.60
19088;DHT22;9676;50.916;13.352;2023-04-23T03:54:03;18.10;44.30
19088;DHT22;9676;50.916;13.352;2023-04-23T03:57:12;18.00;43.70
19088;DHT22;9676;50.916;13.352;2023-04-23T04:00:35;18.00;43.80
19088;DHT22;9676;50.916;13.352;2023-04-23T04:03:24;18.10;43.90
19088;DHT22;9676;50.916;13.352;2023-04-23T04:06:16;18.00;44.00
19088;DHT22;9676;50.916;13.352;2023-04-23T04:09:05;18.00;44.20
19088;DHT22;9676;50.916;13.352;2023-04-23T04:11:55;18.00;44.30
19088;DHT22;9676;50.916;13.352;2023-04-23T04:14:46;18.10;44.40
19088;DHT22;9676;50.916;13.352;2023-04-23T04:17:35;18.10;44.60
19088;DHT22;9676;50.916;13.352;2023-04-23T04:20:25;18.10;44.60
19088;DHT22;9676;50.916;13.352;2023-04-23T04:23:15;18.20;44.80
19088;DHT22;9676;50.916;13.352;2023-04-23T04:26:05;18.20;44.90
19088;DHT22;9676;50.916;13.352;2023-04-23T04:28:55;18.20;45.00
19088;DHT22;9676;50.916;13.352;2023-04-23T04:31:46;18.20;45.00
19088;DHT22;9676;50.916;13.352;2023-04-23T04:34:36;18.30;45.20
19088;DHT22;9676;50.916;13.352;2023-04-23T04:37:26;18.30;45.30
19088;DHT22;9676;50.916;13.352;2023-04-23T04:40:15;18.40;45.30
19088;DHT22;9676;50.916;13.352;2023-04-23T04:43:05;18.40;45.40
19088;DHT22;9676;50.916;13.352;2023-04-23T04:45:54;18.50;45.50
19088;DHT22;9676;50.916;13.352;2023-04-23T04:48:47;18.50;45.50
19088;DHT22;9676;50.916;13.352;2023-04-23T04:51:37;18.50;45.60
19088;DHT22;9676;50.916;13.352;2023-04-23T04:54:27;18.60;45.60
19088;DHT22;9676;50.916;13.352;2023-04-23T04:57:16;18.60;45.50
19088;DHT22;9676;50.916;13.352;2023-04-23T05:00:21;18.70;45.60
19088;DHT22;9676;50.916;13.352;2023-04-23T05:03:12;18.70;46.10
19088;DHT22;9676;50.916;13.352;2023-04-23T05:06:03;18.70;45.60
19088;DHT22;9676;50.916;13.352;2023-04-23T05:08:52;18.70;45.70
19088;DHT22;9676;50.916;13.352;2023-04-23T05:11:42;18.70;45.60
19088;DHT22;9676;50.916;13.352;2023-04-23T05:14:31;18.70;45.70
19088;DHT22;9676;50.916;13.352;2023-04-23T05:17:21;18.70;45.70
19088;DHT22;9676;50.916;13.352;2023-04-23T05:20:10;18.70;45.80
19088;DHT22;9676;50.916;13.352;2023-04-23T05:23:03;18.70;45.90
19088;DHT22;9676;50.916;13.352;2023-04-23T05:25:52;18.70;46.10
19088;DHT22;9676;50.916;13.352;2023-04-23T05:28:43;18.70;46.10
19088;DHT22;9676;50.916;13.352;2023-04-23T05:31:33;18.80;46.20
19088;DHT22;9676;50.916;13.352;2023-04-23T05:34:22;18.90;46.50
19088;DHT22;9676;50.916;13.352;2023-04-23T05:37:12;18.90;46.80
19088;DHT22;9676;50.916;13.352;2023-04-23T05:40:03;19.10;47.20
19088;DHT22;9676;50.916;13.352;2023-04-23T05:42:55;19.30;47.70
19088;DHT22;9676;50.916;13.352;2023-04-23T05:45:45;19.50;48.00
19088;DHT22;9676;50.916;13.352;2023-04-23T05:48:35;19.80;48.30
19088;DHT22;9676;50.916;13.352;2023-04-23T05:51:24;20.10;48.80
19088;DHT22;9676;50.916;13.352;2023-04-23T05:54:14;20.50;49.30
19088;DHT22;9676;50.916;13.352;2023-04-23T05:57:04;20.90;49.30
19088;DHT22;9676;50.916;13.352;2023-04-23T05:59:54;21.30;49.00
19088;DHT22;9676;50.916;13.352;2023-04-23T06:02:43;21.70;48.70
19088;DHT22;9676;50.916;13.352;2023-04-23T06:05:33;22.10;48.70
19088;DHT22;9676;50.916;13.352;2023-04-23T06:08:23;22.40;48.70
19088;DHT22;9676;50.916;13.352;2023-04-23T06:11:12;22.70;48.20
19088;DHT22;9676;50.916;13.352;2023-04-23T06:14:03;22.80;47.40
19088;DHT22;9676;50.916;13.352;2023-04-23T06:16:53;22.90;46.90
19088;DHT22;9676;50.916;13.352;2023-04-23T06:19:42;22.90;46.40
19088;DHT22;9676;50.916;13.352;2023-04-23T06:22:32;22.80;46.10
19088;DHT22;9676;50.916;13.352;2023-04-23T06:25:21;22.80;46.00
19088;DHT22;9676;50.916;13.352;2023-04-23T06:28:11;22.70;45.80
19088;DHT22;9676;50.916;13.352;2023-04-23T06:31:22;22.50;45.60
19088;DHT22;9676;50.916;13.352;2023-04-23T06:34:11;22.40;45.70
19088;DHT22;9676;50.916;13.352;2023-04-23T06:37:00;22.20;45.60
19088;DHT22;9676;50.916;13.352;2023-04-23T06:39:50;22.10;45.60
19088;DHT22;9676;50.916;13.352;2023-04-23T06:42:39;21.90;45.70
19088;DHT22;9676;50.916;13.352;2023-04-23T06:45:52;21.80;45.80
19088;DHT22;9676;50.916;13.352;2023-04-23T06:48:43;21.70;45.90
19088;DHT22;9676;50.916;13.352;2023-04-23T06:51:34;21.60;45.80
19088;DHT22;9676;50.916;13.352;2023-04-23T06:54:23;21.50;45.90
19088;DHT22;9676;50.916;13.352;2023-04-23T06:57:12;21.50;46.00
19088;DHT22;9676;50.916;13.352;2023-04-23T07:00:03;21.40;46.00
19088;DHT22;9676;50.916;13.352;2023-04-23T07:02:58;21.30;46.00
19088;DHT22;9676;50.916;13.352;2023-04-23T07:05:49;21.30;46.00
19088;DHT22;9676;50.916;13.352;2023-04-23T07:08:38;21.20;46.00
19088;DHT22;9676;50.916;13.352;2023-04-23T07:11:28;21.10;46.00
19088;DHT22;9676;50.916;13.352;2023-04-23T07:14:18;21.00;46.30
19088;DHT22;9676;50.916;13.352;2023-04-23T07:17:07;21.00;46.80
19088;DHT22;9676;50.916;13.352;2023-04-23T07:19:57;21.20;47.50
19088;DHT22;9676;50.916;13.352;2023-04-23T07:22:48;21.30;47.80
19088;DHT22;9676;50.916;13.352;2023-04-23T07:25:37;21.50;48.10
19088;DHT22;9676;50.916;13.352;2023-04-23T07:28:27;21.70;48.20
19088;DHT22;9676;50.916;13.352;2023-04-23T07:31:16;21.90;48.40
19088;DHT22;9676;50.916;13.352;2023-04-23T07:34:06;22.20;48.60
19088;DHT22;9676;50.916;13.352;2023-04-23T07:36:56;22.40;48.60
19088;DHT22;9676;50.916;13.352;2023-04-23T07:39:47;22.70;49.00
19088;DHT22;9676;50.916;13.352;2023-04-23T07:42:37;23.10;50.00
19088;DHT22;9676;50.916;13.352;2023-04-23T07:45:27;23.60;50.90
19088;DHT22;9676;50.916;13.352;2023-04-23T07:48:16;24.30;51.70
19088;DHT22;9676;50.916;13.352;2023-04-23T07:51:06;25.10;51.50
19088;DHT22;9676;50.916;13.352;2023-04-23T07:53:56;25.80;51.10
19088;DHT22;9676;50.916;13.352;2023-04-23T07:56:47;26.50;50.80
19088;DHT22;9676;50.916;13.352;2023-04-23T07:59:36;27.10;50.60
19088;DHT22;9676;50.916;13.352;2023-04-23T08:02:27;27.80;50.40
19088;DHT22;9676;50.916;13.352;2023-04-23T08:05:16;28.40;50.20
19088;DHT22;9676;50.916;13.352;2023-04-23T08:08:06;29.00;49.10
19088;DHT22;9676;50.916;13.352;2023-04-23T08:10:56;29.40;47.80
19088;DHT22;9676;50.916;13.352;2023-04-23T08:13:47;29.60;46.50
19088;DHT22;9676;50.916;13.352;2023-04-23T08:16:37;29.50;45.30
19088;DHT22;9676;50.916;13.352;2023-04-23T08:19:26;29.40;44.60
19088;DHT22;9676;50.916;13.352;2023-04-23T08:22:18;29.10;43.90
19088;DHT22;9676;50.916;13.352;2023-04-23T08:25:09;28.80;43.50
19088;DHT22;9676;50.916;13.352;2023-04-23T08:27:59;28.30;43.10
19088;DHT22;9676;50.916;13.352;2023-04-23T08:30:50;27.90;42.90
19088;DHT22;9676;50.916;13.352;2023-04-23T08:33:39;27.40;43.00
19088;DHT22;9676;50.916;13.352;2023-04-23T08:36:29;27.00;43.30
19088;DHT22;9676;50.916;13.352;2023-04-23T08:39:19;26.60;43.50
19088;DHT22;9676;50.916;13.352;2023-04-23T08:42:12;26.20;44.00
19088;DHT22;9676;50.916;13.352;2023-04-23T08:45:06;26.10;45.00
19088;DHT22;9676;50.916;13.352;2023-04-23T08:47:59;26.10;45.60
19088;DHT22;9676;50.916;13.352;2023-04-23T08:50:49;26.10;45.60
19088;DHT22;9676;50.916;13.352;2023-04-23T08:53:42;26.20;45.60
19088;DHT22;9676;50.916;13.352;2023-04-23T08:56:32;26.30;45.40
19088;DHT22;9676;50.916;13.352;2023-04-23T08:59:24;26.30;45.40
19088;DHT22;9676;50.916;13.352;2023-04-23T09:02:15;26.40;45.40
19088;DHT22;9676;50.916;13.352;2023-04-23T09:05:07;26.50;45.30
19088;DHT22;9676;50.916;13.352;2023-04-23T09:07:57;26.60;45.10
19088;DHT22;9676;50.916;13.352;2023-04-23T09:10:47;26.50;44.50
19088;DHT22;9676;50.916;13.352;2023-04-23T09:13:38;26.50;44.20
19088;DHT22;9676;50.916;13.352;2023-04-23T09:16:28;26.30;43.80
19088;DHT22;9676;50.916;13.352;2023-04-23T09:19:18;26.10;43.60
19088;DHT22;9676;50.916;13.352;2023-04-23T09:22:08;25.90;43.70
19088;DHT22;9676;50.916;13.352;2023-04-23T09:25:00;25.70;44.10
19088;DHT22;9676;50.916;13.352;2023-04-23T09:27:50;25.60;44.30
19088;DHT22;9676;50.916;13.352;2023-04-23T09:30:42;25.60;44.70
19088;DHT22;9676;50.916;13.352;2023-04-23T09:33:34;25.60;44.70
19088;DHT22;9676;50.916;13.352;2023-04-23T09:36:24;25.60;44.70
19088;DHT22;9676;50.916;13.352;2023-04-23T09:39:17;25.60;44.60
19088;DHT22;9676;50.916;13.352;2023-04-23T09:42:08;25.60;44.60
19088;DHT22;9676;50.916;13.352;2023-04-23T09:45:02;25.50;44.40
19088;DHT22;9676;50.916;13.352;2023-04-23T09:47:54;25.50;44.20
19088;DHT22;9676;50.916;13.352;2023-04-23T09:50:44;25.40;43.90
19088;DHT22;9676;50.916;13.352;2023-04-23T09:53:40;25.30;43.70
19088;DHT22;9676;50.916;13.352;2023-04-23T09:56:31;25.20;43.70
19088;DHT22;9676;50.916;13.352;2023-04-23T09:59:22;24.90;43.50
19088;DHT22;9676;50.916;13.352;2023-04-23T10:02:32;24.70;43.50
19088;DHT22;9676;50.916;13.352;2023-04-23T10:05:21;24.50;43.60
19088;DHT22;9676;50.916;13.352;2023-04-23T10:08:24;24.40;43.70
19088;DHT22;9676;50.916;13.352;2023-04-23T10:11:13;24.20;43.80
19088;DHT22;9676;50.916;13.352;2023-04-23T10:14:08;24.00;43.80
19088;DHT22;9676;50.916;13.352;2023-04-23T10:16:59;23.90;43.90
19088;DHT22;9676;50.916;13.352;2023-04-23T10:19:50;23.80;43.90
19088;DHT22;9676;50.916;13.352;2023-04-23T10:22:43;23.60;44.00
19088;DHT22;9676;50.916;13.352;2023-04-23T10:25:35;23.50;44.20
19088;DHT22;9676;50.916;13.352;2023-04-23T10:28:29;23.50;44.50
19088;DHT22;9676;50.916;13.352;2023-04-23T10:31:23;23.40;44.80
19088;DHT22;9676;50.916;13.352;2023-04-23T10:34:14;23.40;45.20
19088;DHT22;9676;50.916;13.352;2023-04-23T10:37:05;23.50;45.60
19088;DHT22;9676;50.916;13.352;2023-04-23T10:40:00;23.60;45.70
19088;DHT22;9676;50.916;13.352;2023-04-23T10:42:52;23.70;45.70
19088;DHT22;9676;50.916;13.352;2023-04-23T10:45:42;23.70;45.40
19088;DHT22;9676;50.916;13.352;2023-04-23T10:48:51;23.80;45.50
19088;DHT22;9676;50.916;13.352;2023-04-23T10:52:01;23.70;45.70
19088;DHT22;9676;50.916;13.352;2023-04-23T10:54:56;23.70;45.80
19088;DHT22;9676;50.916;13.352;2023-04-23T10:58:00;23.70;46.10
19088;DHT22;9676;50.916;13.352;2023-04-23T11:00:51;23.80;46.70
19088;DHT22;9676;50.916;13.352;2023-04-23T11:03:41;23.90;46.80
19088;DHT22;9676;50.916;13.352;2023-04-23T11:06:52;24.10;46.90
19088;DHT22;9676;50.916;13.352;2023-04-23T11:09:45;24.30;47.10
19088;DHT22;9676;50.916;13.352;2023-04-23T11:12:34;24.40;47.10
19088;DHT22;9676;50.916;13.352;2023-04-23T11:15:24;24.60;47.20
19088;DHT22;9676;50.916;13.352;2023-04-23T11:18:13;24.80;46.90
19088;DHT22;9676;50.916;13.352;2023-04-23T11:21:03;24.90;46.70
19088;DHT22;9676;50.916;13.352;2023-04-23T11:23:54;25.00;46.50
19088;DHT22;9676;50.916;13.352;2023-04-23T11:26:45;25.10;46.20
19088;DHT22;9676;50.916;13.352;2023-04-23T11:29:36;25.10;45.90
19088;DHT22;9676;50.916;13.352;2023-04-23T11:32:27;25.10;45.50
19088;DHT22;9676;50.916;13.352;2023-04-23T11:35:18;24.90;45.30
19088;DHT22;9676;50.916;13.352;2023-04-23T11:38:08;24.90;45.60
19088;DHT22;9676;50.916;13.352;2023-04-23T11:41:01;24.80;45.90
19088;DHT22;9676;50.916;13.352;2023-04-23T11:43:52;24.80;46.40
19088;DHT22;9676;50.916;13.352;2023-04-23T11:46:41;24.80;46.60
19088;DHT22;9676;50.916;13.352;2023-04-23T11:49:30;24.90;46.80
19088;DHT22;9676;50.916;13.352;2023-04-23T11:52:20;25.00;46.80
19088;DHT22;9676;50.916;13.352;2023-04-23T11:55:09;25.20;46.70
19088;DHT22;9676;50.916;13.352;2023-04-23T11:58:01;25.30;46.50
19088;DHT22;9676;50.916;13.352;2023-04-23T12:00:56;25.30;46.20
19088;DHT22;9676;50.916;13.352;2023-04-23T12:03:47;25.40;46.20
19088;DHT22;9676;50.916;13.352;2023-04-23T12:06:38;25.40;46.20
19088;DHT22;9676;50.916;13.352;2023-04-23T12:09:29;25.50;46.10
19088;DHT22;9676;50.916;13.352;2023-04-23T12:12:19;25.40;45.90
19088;DHT22;9676;50.916;13.352;2023-04-23T12:15:11;25.50;46.10
19088;DHT22;9676;50.916;13.352;2023-04-23T12:18:08;25.50;46.10
19088;DHT22;9676;50.916;13.352;2023-04-23T12:21:04;25.60;45.80
19088;DHT22;9676;50.916;13.352;2023-04-23T12:23:55;25.60;45.60
19088;DHT22;9676;50.916;13.352;2023-04-23T12:26:48;25.60;45.50
19088;DHT22;9676;50.916;13.352;2023-04-23T12:29:41;25.60;45.40
19088;DHT22;9676;50.916;13.352;2023-04-23T12:32:33;25.60;45.50
19088;DHT22;9676;50.916;13.352;2023-04-23T12:35:36;25.50;45.50
19088;DHT22;9676;50.916;13.352;2023-04-23T12:38:27;25.50;45.60
19088;DHT22;9676;50.916;13.352;2023-04-23T12:41:17;25.60;45.80
19088;DHT22;9676;50.916;13.352;2023-04-23T12:44:07;25.60;45.60
19088;DHT22;9676;50.916;13.352;2023-04-23T12:46:57;25.70;45.70
19088;DHT22;9676;50.916;13.352;2023-04-23T12:49:51;25.70;45.70
19088;DHT22;9676;50.916;13.352;2023-04-23T12:52:42;25.70;45.60
19088;DHT22;9676;50.916;13.352;2023-04-23T12:55:31;25.80;45.70
19088;DHT22;9676;50.916;13.352;2023-04-23T12:58:21;25.90;45.60
19088;DHT22;9676;50.916;13.352;2023-04-23T13:01:10;25.90;45.50
19088;DHT22;9676;50.916;13.352;2023-04-23T13:04:01;25.90;45.50
19088;DHT22;9676;50.916;13.352;2023-04-23T13:06:52;26.00;45.50
19088;DHT22;9676;50.916;13.352;2023-04-23T13:09:41;26.00;45.50
19088;DHT22;9676;50.916;13.352;2023-04-23T13:12:31;26.00;45.30
19088;DHT22;9676;50.916;13.352;2023-04-23T13:15:21;26.00;45.10
19088;DHT22;9676;50.916;13.352;2023-04-23T13:18:13;25.90;44.90
19088;DHT22;9676;50.916;13.352;2023-04-23T13:21:02;25.80;44.80
19088;DHT22;9676;50.916;13.352;2023-04-23T13:23:53;25.80;44.90
19088;DHT22;9676;50.916;13.352;2023-04-23T13:26:42;25.70;44.90
19088;DHT22;9676;50.916;13.352;2023-04-23T13:29:32;25.60;44.80
19088;DHT22;9676;50.916;13.352;2023-04-23T13:32:22;25.50;44.70
19088;DHT22;9676;50.916;13.352;2023-04-23T13:35:14;25.50;44.70
19088;DHT22;9676;50.916;13.352;2023-04-23T13:38:04;25.40;44.70
19088;DHT22;9676;50.916;13.352;2023-04-23T13:40:55;25.30;44.60
19088;DHT22;9676;50.916;13.352;2023-04-23T13:43:44;25.20;44.50
19088;DHT22;9676;50.916;13.352;2023-04-23T13:46:34;25.10;44.50
19088;DHT22;9676;50.916;13.352;2023-04-23T13:49:23;25.00;44.40
19088;DHT22;9676;50.916;13.352;2023-04-23T13:52:13;24.90;44.50
19088;DHT22;9676;50.916;13.352;2023-04-23T13:55:03;24.90;44.60
19088;DHT22;9676;50.916;13.352;2023-04-23T13:57:55;24.80;44.60
19088;DHT22;9676;50.916;13.352;2023-04-23T14:00:45;24.70;44.60
19088;DHT22;9676;50.916;13.352;2023-04-23T14:03:34;24.60;44.60
19088;DHT22;9676;50.916;13.352;2023-04-23T14:06:24;24.50;44.80
19088;DHT22;9676;50.916;13.352;2023-04-23T14:09:14;24.40;44.90
19088;DHT22;9676;50.916;13.352;2023-04-23T14:12:04;24.20;45.00
19088;DHT22;9676;50.916;13.352;2023-04-23T14:14:55;24.20;45.30
19088;DHT22;9676;50.916;13.352;2023-04-23T14:17:45;24.20;45.50
19088;DHT22;9676;50.916;13.352;2023-04-23T14:20:35;24.20;45.60
19088;DHT22;9676;50.916;13.352;2023-04-23T14:24:00;24.20;45.70
19088;DHT22;9676;50.916;13.352;2023-04-23T14:26:50;24.20;46.00
19088;DHT22;9676;50.916;13.352;2023-04-23T14:29:40;24.30;46.00
19088;DHT22;9676;50.916;13.352;2023-04-23T14:32:35;24.30;46.00
19088;DHT22;9676;50.916;13.352;2023-04-23T14:35:24;24.40;45.90
19088;DHT22;9676;50.916;13.352;2023-04-23T14:38:29;24.40;45.80
19088;DHT22;9676;50.916;13.352;2023-04-23T14:41:19;24.40;45.70
19088;DHT22;9676;50.916;13.352;2023-04-23T14:44:08;24.40;45.60
19088;DHT22;9676;50.916;13.352;2023-04-23T14:46:58;24.40;46.40
19088;DHT22;9676;50.916;13.352;2023-04-23T14:49:48;24.40;46.40
19088;DHT22;9676;50.916;13.352;2023-04-23T14:52:38;24.40;45.80
19088;DHT22;9676;50.916;13.352;2023-04-23T14:55:27;24.40;45.90
19088;DHT22;9676;50.916;13.352;2023-04-23T14:58:17;24.40;45.90
19088;DHT22;9676;50.916;13.352;2023-04-23T15:01:07;24.40;45.80
19088;DHT22;9676;50.916;13.352;2023-04-23T15:03:56;24.40;45.90
19088;DHT22;9676;50.916;13.352;2023-04-23T15:06:47;24.50;45.90
19088;DHT22;9676;50.916;13.352;2023-04-23T15:09:36;24.50;45.90
19088;DHT22;9676;50.916;13.352;2023-04-23T15:12:47;24.50;46.00
19088;DHT22;9676;50.916;13.352;2023-04-23T15:15:42;24.60;46.20
19088;DHT22;9676;50.916;13.352;2023-04-23T15:18:32;24.60;45.90
19088;DHT22;9676;50.916;13.352;2023-04-23T15:21:22;24.60;45.80
19088;DHT22;9676;50.916;13.352;2023-04-23T15:24:12;24.60;45.60
19088;DHT22;9676;50.916;13.352;2023-04-23T15:27:02;24.50;45.40
19088;DHT22;9676;50.916;13.352;2023-04-23T15:29:52;24.50;45.30
19088;DHT22;9676;50.916;13.352;2023-04-23T15:32:41;24.40;45.10
19088;DHT22;9676;50.916;13.352;2023-04-23T15:35:31;24.30;45.00
19088;DHT22;9676;50.916;13.352;2023-04-23T15:38:20;24.20;44.90
19088;DHT22;9676;50.916;13.352;2023-04-23T15:41:11;24.10;44.80
19088;DHT22;9676;50.916;13.352;2023-04-23T15:44:01;23.90;44.80
19088;DHT22;9676;50.916;13.352;2023-04-23T15:46:50;23.80;44.80
19088;DHT22;9676;50.916;13.352;2023-04-23T15:49:39;23.70;44.90
19088;DHT22;9676;50.916;13.352;2023-04-23T15:52:30;23.50;45.00
19088;DHT22;9676;50.916;13.352;2023-04-23T15:55:19;23.30;45.10
19088;DHT22;9676;50.916;13.352;2023-04-23T15:58:10;23.20;45.30
19088;DHT22;9676;50.916;13.352;2023-04-23T16:00:59;23.10;45.50
19088;DHT22;9676;50.916;13.352;2023-04-23T16:03:49;23.00;45.60
19088;DHT22;9676;50.916;13.352;2023-04-23T16:06:56;22.80;45.50
19088;DHT22;9676;50.916;13.352;2023-04-23T16:09:46;22.70;45.40
19088;DHT22;9676;50.916;13.352;2023-04-23T16:12:35;22.60;45.50
19088;DHT22;9676;50.916;13.352;2023-04-23T16:15:26;22.50;45.50
19088;DHT22;9676;50.916;13.352;2023-04-23T16:18:16;22.40;45.50
19088;DHT22;9676;50.916;13.352;2023-04-23T16:21:05;22.30;45.50
19088;DHT22;9676;50.916;13.352;2023-04-23T16:23:55;22.20;45.60
19088;DHT22;9676;50.916;13.352;2023-04-23T16:26:45;22.10;45.60
19088;DHT22;9676;50.916;13.352;2023-04-23T16:29:34;22.00;45.80
19088;DHT22;9676;50.916;13.352;2023-04-23T16:32:25;21.80;45.70
19088;DHT22;9676;50.916;13.352;2023-04-23T16:35:15;21.70;45.90
19088;DHT22;9676;50.916;13.352;2023-04-23T16:38:04;21.60;46.60
19088;DHT22;9676;50.916;13.352;2023-04-23T16:40:57;21.50;46.20
19088;DHT22;9676;50.916;13.352;2023-04-23T16:43:46;21.40;46.30
19088;DHT22;9676;50.916;13.352;2023-04-23T16:46:36;21.30;46.40
19088;DHT22;9676;50.916;13.352;2023-04-23T16:49:27;21.20;46.60
19088;DHT22;9676;50.916;13.352;2023-04-23T16:52:16;21.10;46.90
19088;DHT22;9676;50.916;13.352;2023-04-23T16:55:06;21.00;46.80
19088;DHT22;9676;50.916;13.352;2023-04-23T16:57:56;20.90;46.90
19088;DHT22;9676;50.916;13.352;2023-04-23T17:00:46;20.80;46.90
19088;DHT22;9676;50.916;13.352;2023-04-23T17:03:35;20.70;47.00
19088;DHT22;9676;50.916;13.352;2023-04-23T17:06:28;20.70;47.30
19088;DHT22;9676;50.916;13.352;2023-04-23T17:09:18;20.60;47.50
19088;DHT22;9676;50.916;13.352;2023-04-23T17:12:07;20.50;47.40
19088;DHT22;9676;50.916;13.352;2023-04-23T17:14:57;20.40;47.40
19088;DHT22;9676;50.916;13.352;2023-04-23T17:17:46;20.30;47.40
19088;DHT22;9676;50.916;13.352;2023-04-23T17:20:36;20.30;47.80
19088;DHT22;9676;50.916;13.352;2023-04-23T17:23:26;20.20;47.70
19088;DHT22;9676;50.916;13.352;2023-04-23T17:26:16;20.10;47.80
19088;DHT22;9676;50.916;13.352;2023-04-23T17:29:06;20.10;47.80
19088;DHT22;9676;50.916;13.352;2023-04-23T17:31:55;20.10;47.80
19088;DHT22;9676;50.916;13.352;2023-04-23T17:34:45;20.10;48.00
19088;DHT22;9676;50.916;13.352;2023-04-23T17:37:43;20.00;48.20
19088;DHT22;9676;50.916;13.352;2023-04-23T17:40:33;20.00;48.10
19088;DHT22;9676;50.916;13.352;2023-04-23T17:43:25;19.90;48.30
19088;DHT22;9676;50.916;13.352;2023-04-23T17:46:14;19.80;48.30
19088;DHT22;9676;50.916;13.352;2023-04-23T17:49:03;19.80;48.50
19088;DHT22;9676;50.916;13.352;2023-04-23T17:51:53;19.80;48.80
19088;DHT22;9676;50.916;13.352;2023-04-23T17:54:42;19.80;48.80
19088;DHT22;9676;50.916;13.352;2023-04-23T17:57:34;19.70;48.80
19088;DHT22;9676;50.916;13.352;2023-04-23T18:00:23;19.70;48.80